Flight Track Log - Related Links

Times and Time Zones

All times are in EDT time to prevent confusion due to time zone crossing. See the ASQ5685 flight status page for this flight to view local times or setup timezone preferences in your user account.

Time Position Orientation Groundspeed Altitude Reporting Facility
EDT Latitude Longitude Course Direction KTS MPH feet Rate Location/Type
Sun 03:21:00 PM 44.1927 -73.2496 196° South  Level FlightAware Approximate
Sun 03:21:24 PM 44.3006 -73.1797 195° South 270 311 9,400  Level Boston Center
Sun 03:22:00 PM 44.1017 -73.2860 196° South  Level FlightAware Approximate
Sun 03:22:24 PM 44.2192 -73.2106 195° South 296 341 11,300  Level Boston Center
Sun 03:23:00 PM 44.0107 -73.3224 196° South  Level FlightAware Approximate
Sun 03:23:24 PM 44.1314 -73.2469 197° South 327 376 13,900  Level Boston Center
Sun 03:24:00 PM 43.9197 -73.3588 196° South  Level FlightAware Approximate
Sun 03:24:24 PM 44.0353 -73.2861 196° South 350 403 16,000  Level Boston Center
Sun 03:25:00 PM 43.8283 -73.3932 195° South  Level FlightAware Approximate
Sun 03:25:24 PM 43.9369 -73.3281 197° South 370 426 17,700  Level Boston Center
Sun 03:26:00 PM 43.7368 -73.4269 195° South  Level FlightAware Approximate
Sun 03:26:24 PM 43.8325 -73.3697 196° South 386 444 19,000  Level Boston Center
Sun 03:27:24 PM 43.7258 -73.4139 197° South 399 459 20,700 1,700 Climbing Boston Center
Sun 03:28:24 PM 43.6044 -73.4636 197° South 411 473 22,400 1,600 Climbing Boston Center
Sun 03:29:24 PM 43.4936 -73.5047 195° South 411 473 23,900 1,300 Climbing Boston Center
Sun 03:30:24 PM 43.3828 -73.5486 196° South 416 479 25,000 1,100 Climbing Boston Center
Sun 03:31:24 PM 43.2700 -73.5919 196° South 421 484 26,100 1,050 Climbing Boston Center
Sun 03:32:24 PM 43.1569 -73.6383 197° South 421 484 27,100 950 Climbing Boston Center
Sun 03:33:24 PM 43.0522 -73.6844 198° South 428 493 28,000 1,050 Climbing Boston Center
Sun 03:34:24 PM 42.9369 -73.7306 196° South 435 501 29,200 1,000 Climbing Boston Center
Sun 03:35:24 PM 42.8219 -73.7761 196° South 435 501 30,000 400 Climbing Boston Center
Sun 03:36:24 PM 42.6961 -73.8272 197° South 435 501 30,000  Level Boston Center
Sun 03:37:24 PM 42.5789 -73.8836 200° South 442 509 30,000  Level Boston Center
Sun 03:38:24 PM 42.4572 -73.9372 198° South 447 514 30,000 -200 Level Boston Center
Sun 03:39:24 PM 42.3336 -73.9903 198° South 458 527 29,600 -650 Descending Boston Center
Sun 03:40:24 PM 42.2078 -74.0489 199° South 471 542 28,700 -700 Descending Boston Center
Sun 03:41:24 PM 42.0819 -74.1017 197° South 476 548 28,200 -350 Descending Boston Center
Sun 03:42:24 PM 41.9581 -74.1514 197° South 476 548 28,000 -65 Descending Boston Center
Sun 03:44:29 PM 41.7183 -74.2503 197° South 477 549 28,000  Level New York Center
Sun 03:45:29 PM 41.5981 -74.3050 199° South 472 543 28,000  Level New York Center
Sun 03:46:29 PM 41.4717 -74.3564 197° South 454 522 28,000  Level New York Center
Sun 03:47:28 PM 41.3472 -74.4081 197° South 454 522 28,000  Level New York Center
Sun 03:48:29 PM 41.2250 -74.4564 197° South 454 522 28,000  Level New York Center
Sun 03:49:28 PM 41.1047 -74.5050 197° South 454 522 28,000  Level New York Center
Sun 03:50:28 PM 40.9883 -74.5589 199° South 454 522 28,000  Level New York Center
Sun 03:51:30 PM 40.8817 -74.6353 208° Southwest 428 493 28,000  Level New York Center
Sun 03:52:30 PM 40.8231 -74.7692 240° Southwest 411 473 28,000  Level New York Center
Sun 03:53:28 PM 40.7622 -74.9053 239° Southwest 420 483 28,000  Level New York Center
Sun 03:54:29 PM 40.7033 -75.0386 240° Southwest 426 490 28,000  Level New York Center
Sun 03:55:30 PM 40.6397 -75.1769 239° Southwest 426 490 28,000 -541 Level New York Center
Sun 03:56:31 PM 40.5806 -75.3097 240° Southwest 431 496 26,900 -1,322 Descending New York Center
Sun 03:57:28 PM 40.5192 -75.4422 239° Southwest 431 496 25,400 -1,538 Descending New York Center
Sun 03:58:28 PM 40.4578 -75.5717 238° Southwest 431 496 23,900 -1,488 Descending New York Center
Sun 03:59:29 PM 40.4028 -75.6933 239° Southwest 431 496 22,400 -1,488 Descending New York Center
Sun 04:00:29 PM 40.3453 -75.8172 239° Southwest 421 484 20,900 -1,200 Descending New York Center
Sun 04:01:29 PM 40.2814 -75.9458 237° Southwest 416 479 20,000 -992 Descending New York Center
Sun 04:02:30 PM 40.2189 -76.0853 240° Southwest 408 470 18,900 -1,059 Descending New York Center
Sun 04:03:28 PM 40.1592 -76.2056 237° Southwest 408 470 17,900 -850 Descending New York Center
Sun 04:04:30 PM 40.1033 -76.3289 239° Southwest 403 464 17,200 -541 Descending New York Center
Sun 04:05:30 PM 40.0522 -76.4414 239° Southwest 398 458 16,800 -450 Descending New York Center
Sun 04:06:30 PM 39.9917 -76.5719 239° Southwest 393 452 16,300 -661 Descending New York Center
Sun 04:07:28 PM 39.9358 -76.6892 238° Southwest 388 447 15,500 -518 Descending New York Center
Sun 04:09:47 PM 39.8167 -76.9333 238° Southwest 376 433 14,600 -573 Descending Potomac TRACON
Sun 04:10:47 PM 39.7667 -77.0333 237° Southwest 344 396 13,600 -1,000 Descending Potomac TRACON
Sun 04:11:47 PM 39.7333 -77.1333 247° West 311 358 12,600 -1,100 Descending Potomac TRACON
Sun 04:12:47 PM 39.6833 -77.2167 232° Southwest 293 337 11,400 -1,417 Descending Potomac TRACON
Sun 04:13:54 PM 39.6333 -77.3167 237° Southwest 267 307 9,600 -1,587 Descending Potomac TRACON
Sun 04:14:48 PM 39.5833 -77.3500 207° Southwest 249 287 8,200 -1,632 Descending Potomac TRACON
Sun 04:15:48 PM 39.5167 -77.4000 210° Southwest 244 281 6,500 -1,850 Descending Potomac TRACON
Sun 04:16:48 PM 39.4500 -77.4333 201° Southwest 232 267 4,500 -1,700 Descending Potomac TRACON
Sun 04:17:48 PM 39.4000 -77.4333 180° South 235 270 3,100 -783 Descending Potomac TRACON
Sun 04:18:43 PM 39.3500 -77.4333 180° South 182 209 3,000 -109 Descending Potomac TRACON

Login

Don't have an account? Register now (free) for customized features, flight alerts, and more!